createdAt,value
2023-03-06T00:01:10.125Z,50.13
2023-03-06T00:03:37.636Z,49.88
2023-03-06T00:06:04.134Z,50.03
2023-03-06T00:08:30.612Z,49.82
2023-03-06T00:10:57.007Z,49.93
2023-03-06T00:13:23.472Z,50.17
2023-03-06T00:15:50.135Z,50.15
2023-03-06T00:18:16.941Z,50.10
2023-03-06T00:20:43.261Z,50.18
2023-03-06T00:23:09.754Z,50.11
2023-03-06T00:25:36.064Z,50.13
2023-03-06T00:28:02.457Z,50.24
2023-03-06T00:30:28.965Z,50.30
2023-03-06T00:32:55.379Z,50.13
2023-03-06T00:35:21.726Z,50.20
2023-03-06T00:37:48.191Z,49.74
2023-03-06T00:40:14.665Z,50.02
2023-03-06T00:42:41.411Z,50.09
2023-03-06T00:45:07.847Z,50.27
2023-03-06T00:47:34.203Z,49.91
2023-03-06T00:50:00.672Z,50.24
2023-03-06T00:52:27.265Z,50.18
2023-03-06T00:54:53.777Z,50.30
2023-03-06T00:57:20.142Z,50.20
2023-03-06T00:59:46.514Z,50.24
2023-03-06T01:02:13.282Z,50.14
2023-03-06T01:04:39.777Z,50.23
2023-03-06T01:07:06.384Z,50.27
2023-03-06T01:09:32.787Z,50.16
2023-03-06T01:11:59.176Z,50.28
2023-03-06T01:14:25.508Z,50.29
2023-03-06T01:16:51.843Z,50.43
2023-03-06T01:19:18.482Z,50.25
2023-03-06T01:21:44.926Z,50.32
2023-03-06T01:24:11.258Z,50.34
2023-03-06T01:26:37.657Z,50.30
2023-03-06T01:29:04.036Z,50.28
2023-03-06T01:31:30.621Z,50.29
2023-03-06T01:33:57.372Z,50.36
2023-03-06T01:36:23.695Z,50.33
2023-03-06T01:38:50.072Z,50.20
2023-03-06T01:41:16.460Z,50.40
2023-03-06T01:43:42.824Z,50.62
2023-03-06T01:46:09.216Z,50.57
2023-03-06T01:48:35.927Z,50.52
2023-03-06T01:51:02.270Z,50.62
2023-03-06T01:53:28.778Z,50.63
2023-03-06T01:55:55.185Z,50.61
2023-03-06T01:58:21.623Z,50.68
2023-03-06T02:00:48.136Z,50.64
2023-03-06T02:03:17.049Z,50.37
2023-03-06T02:05:43.790Z,50.36
2023-03-06T02:08:10.162Z,50.47
2023-03-06T02:10:36.506Z,50.64
2023-03-06T02:13:03.224Z,50.52
2023-03-06T02:15:29.948Z,50.56
2023-03-06T02:17:56.337Z,50.66
2023-03-06T02:20:22.699Z,50.59
2023-03-06T02:22:50.803Z,50.65
2023-03-06T02:25:17.249Z,50.71
2023-03-06T02:27:43.643Z,50.46
2023-03-06T02:30:09.995Z,50.58
2023-03-06T02:32:36.534Z,50.57
2023-03-06T02:35:02.864Z,50.58
2023-03-06T02:37:29.179Z,50.75
2023-03-06T02:39:55.801Z,50.75
2023-03-06T02:42:22.173Z,50.58
2023-03-06T02:44:48.831Z,50.87
2023-03-06T02:47:15.233Z,50.80
2023-03-06T02:49:41.664Z,50.67
2023-03-06T02:52:08.029Z,50.59
2023-03-06T02:54:34.469Z,50.73
2023-03-06T02:57:00.914Z,50.81
2023-03-06T02:59:27.421Z,50.67
2023-03-06T03:01:53.773Z,50.42
2023-03-06T03:04:20.109Z,50.52
2023-03-06T03:06:46.589Z,50.71
2023-03-06T03:09:12.921Z,50.96
2023-03-06T03:11:39.261Z,50.69
2023-03-06T03:14:05.678Z,50.69
2023-03-06T03:16:32.036Z,50.66
2023-03-06T03:18:58.713Z,50.80
2023-03-06T03:21:25.630Z,50.58
2023-03-06T03:23:52.005Z,50.73
2023-03-06T03:26:18.975Z,50.86
2023-03-06T03:28:45.575Z,50.74
2023-03-06T03:31:12.003Z,50.73
2023-03-06T03:33:38.314Z,50.96
2023-03-06T03:36:04.815Z,50.79
2023-03-06T03:38:31.320Z,50.92
2023-03-06T03:40:57.586Z,50.85
2023-03-06T03:43:24.129Z,50.63
2023-03-06T03:45:50.452Z,50.83
2023-03-06T03:48:16.926Z,50.71
2023-03-06T03:50:43.214Z,50.60
2023-03-06T03:53:09.967Z,50.81
2023-03-06T03:55:36.349Z,51.01
2023-03-06T03:58:03.210Z,50.98
2023-03-06T04:00:29.787Z,50.76
2023-03-06T04:02:56.190Z,50.74
2023-03-06T04:05:22.555Z,50.96
2023-03-06T04:07:49.435Z,50.92
2023-03-06T04:10:15.679Z,50.97
2023-03-06T04:12:42.138Z,50.90
2023-03-06T04:15:08.595Z,50.91
2023-03-06T04:17:34.962Z,50.75
2023-03-06T04:20:01.584Z,50.74
2023-03-06T04:22:27.954Z,50.88
2023-03-06T04:24:54.435Z,50.80
2023-03-06T04:27:20.867Z,50.80
2023-03-06T04:29:47.386Z,50.88
2023-03-06T04:32:13.997Z,50.89
2023-03-06T04:34:40.406Z,50.93
2023-03-06T04:37:06.982Z,50.98
2023-03-06T04:39:33.317Z,50.79
2023-03-06T04:41:59.794Z,50.75
2023-03-06T04:44:26.576Z,50.89
2023-03-06T04:46:53.362Z,50.90
2023-03-06T04:49:19.758Z,50.72
2023-03-06T04:51:46.113Z,51.06
2023-03-06T04:54:12.538Z,51.04
2023-03-06T04:56:39.343Z,51.08
2023-03-06T04:59:05.686Z,50.88
2023-03-06T05:01:32.101Z,50.93
2023-03-06T05:03:58.535Z,51.01
2023-03-06T05:06:25.086Z,51.04
2023-03-06T05:08:51.374Z,51.07
2023-03-06T05:11:18.079Z,51.00
2023-03-06T05:13:44.555Z,51.09
2023-03-06T05:16:10.938Z,50.93
2023-03-06T05:18:37.418Z,51.13
2023-03-06T05:21:03.815Z,51.11
2023-03-06T05:23:30.346Z,50.99
2023-03-06T05:25:56.649Z,50.92
2023-03-06T05:28:23.215Z,51.19
2023-03-06T05:30:49.648Z,50.94
2023-03-06T05:33:16.151Z,51.14
2023-03-06T05:35:43.062Z,51.22
2023-03-06T05:38:09.469Z,50.96
2023-03-06T05:40:35.807Z,51.10
2023-03-06T05:43:02.138Z,51.13
2023-03-06T05:45:28.426Z,51.00
2023-03-06T05:47:54.860Z,51.21
2023-03-06T05:50:21.299Z,51.29
2023-03-06T05:52:47.733Z,51.21
2023-03-06T05:55:14.137Z,51.03
2023-03-06T05:57:40.435Z,51.01
2023-03-06T06:00:06.908Z,51.08
2023-03-06T06:02:33.268Z,51.22
2023-03-06T06:04:59.778Z,51.09
2023-03-06T06:07:26.113Z,50.94
2023-03-06T06:09:52.493Z,51.13
2023-03-06T06:12:18.881Z,51.27
2023-03-06T06:14:45.590Z,51.08
2023-03-06T06:17:12.158Z,51.47
2023-03-06T06:19:38.508Z,51.16
2023-03-06T06:22:04.862Z,51.16
2023-03-06T06:24:31.299Z,51.34
2023-03-06T06:26:57.680Z,51.31
2023-03-06T06:29:24.279Z,51.21
2023-03-06T06:31:50.684Z,51.38
2023-03-06T06:34:17.150Z,51.41
2023-03-06T06:36:43.660Z,51.31
2023-03-06T06:39:10.007Z,51.31
2023-03-06T06:41:53.600Z,51.21
2023-03-06T06:44:22.842Z,51.26
2023-03-06T06:47:21.206Z,51.15
2023-03-06T06:49:35.545Z,51.05
2023-03-06T06:52:01.865Z,51.32
2023-03-06T06:54:28.252Z,51.34
2023-03-06T06:56:54.570Z,51.17
2023-03-06T06:59:21.215Z,51.30
2023-03-06T07:01:47.856Z,51.15
2023-03-06T07:04:14.295Z,51.26
2023-03-06T07:06:40.678Z,51.10
2023-03-06T07:09:07.296Z,51.31
2023-03-06T07:11:33.771Z,51.21
2023-03-06T07:14:00.238Z,51.32
2023-03-06T07:16:26.608Z,51.16
2023-03-06T07:18:53.050Z,51.23
2023-03-06T07:21:19.378Z,51.44
2023-03-06T07:23:45.699Z,51.25
2023-03-06T07:26:11.990Z,51.38
2023-03-06T07:28:51.616Z,51.32
2023-03-06T07:31:19.231Z,51.57
2023-03-06T07:33:45.648Z,51.41
2023-03-06T07:36:13.779Z,51.23
2023-03-06T07:38:40.406Z,51.49
2023-03-06T07:41:06.750Z,51.27
2023-03-06T07:43:33.756Z,51.41
2023-03-06T07:46:00.181Z,51.51
2023-03-06T07:48:26.844Z,51.54
2023-03-06T07:50:53.186Z,51.00
2023-03-06T07:53:19.616Z,51.37
2023-03-06T07:55:46.088Z,51.49
2023-03-06T07:58:12.591Z,51.57
2023-03-06T08:00:39.377Z,51.65
2023-03-06T08:03:06.222Z,51.63
2023-03-06T08:05:32.582Z,51.54
2023-03-06T08:07:59.103Z,51.57
2023-03-06T08:10:25.902Z,51.54
2023-03-06T08:12:52.316Z,51.78
2023-03-06T08:15:18.683Z,51.82
2023-03-06T08:17:45.213Z,51.66
2023-03-06T08:20:11.511Z,51.86
2023-03-06T08:22:37.943Z,51.72
2023-03-06T08:25:04.498Z,51.81
2023-03-06T08:27:30.893Z,51.67
2023-03-06T08:29:57.443Z,51.74
2023-03-06T08:32:23.839Z,51.71
2023-03-06T08:34:50.254Z,51.82
2023-03-06T08:37:16.940Z,51.84
2023-03-06T08:39:43.863Z,51.59
2023-03-06T08:42:10.509Z,51.89
2023-03-06T08:44:36.993Z,51.82
2023-03-06T08:47:03.311Z,51.88
2023-03-06T08:49:29.682Z,51.99
2023-03-06T08:51:56.124Z,51.90
2023-03-06T08:54:22.625Z,51.71
2023-03-06T08:56:48.958Z,51.99
2023-03-06T08:59:15.475Z,51.82
2023-03-06T09:01:42.045Z,51.83
2023-03-06T09:04:08.571Z,51.87
2023-03-06T09:06:34.987Z,52.01
2023-03-06T09:09:01.346Z,51.79
2023-03-06T09:11:27.941Z,52.02
2023-03-06T09:13:54.411Z,52.05
2023-03-06T09:16:20.974Z,51.91
2023-03-06T09:18:47.280Z,56.01
2023-03-06T09:21:13.615Z,53.06
2023-03-06T09:23:40.029Z,52.49
2023-03-06T09:26:06.806Z,52.25
2023-03-06T09:28:33.472Z,52.33
2023-03-06T09:30:59.924Z,52.44
2023-03-06T09:33:26.500Z,52.73
2023-03-06T09:35:53.503Z,52.41
2023-03-06T09:38:19.929Z,52.74
2023-03-06T09:40:46.240Z,52.38
2023-03-06T09:43:13.176Z,52.59
2023-03-06T09:45:39.914Z,52.78
2023-03-06T09:48:06.467Z,52.79
2023-03-06T09:50:32.946Z,52.71
2023-03-06T09:52:59.303Z,52.69
2023-03-06T09:55:25.690Z,52.65
2023-03-06T09:57:52.379Z,52.66
2023-03-06T10:00:19.179Z,52.96
2023-03-06T10:02:45.586Z,52.79
2023-03-06T10:05:11.980Z,52.63
2023-03-06T10:07:38.955Z,52.52
2023-03-06T10:10:05.314Z,52.63
2023-03-06T10:12:31.722Z,52.61
2023-03-06T10:14:58.289Z,52.59
2023-03-06T10:17:24.568Z,52.71
2023-03-06T10:19:51.068Z,52.73
2023-03-06T10:22:17.670Z,52.60
2023-03-06T10:24:44.050Z,52.35
2023-03-06T10:27:10.477Z,52.56
2023-03-06T10:29:38.539Z,52.46
2023-03-06T10:32:05.533Z,52.54
2023-03-06T10:34:31.925Z,52.61
2023-03-06T10:36:58.275Z,52.36
2023-03-06T10:39:24.717Z,52.67
2023-03-06T10:41:51.226Z,52.52
2023-03-06T10:44:17.624Z,52.54
2023-03-06T10:46:44.274Z,52.55
2023-03-06T10:49:11.050Z,52.63
2023-03-06T10:51:37.372Z,52.51
2023-03-06T10:54:03.779Z,52.74
2023-03-06T10:56:30.151Z,52.54
2023-03-06T10:58:56.495Z,52.78
2023-03-06T11:01:23.233Z,52.64
2023-03-06T11:03:49.756Z,52.51
2023-03-06T11:06:16.105Z,52.60
2023-03-06T11:08:43.002Z,52.32
2023-03-06T11:11:09.733Z,52.28
2023-03-06T11:13:36.537Z,52.55
2023-03-06T11:16:02.871Z,52.46
2023-03-06T11:18:29.250Z,52.08
2023-03-06T11:20:55.864Z,51.98
2023-03-06T11:23:22.368Z,52.05
2023-03-06T11:25:48.897Z,52.34
2023-03-06T11:28:15.467Z,52.23
2023-03-06T11:30:41.889Z,52.38
2023-03-06T11:33:08.282Z,52.31
2023-03-06T11:35:34.631Z,52.22
2023-03-06T11:38:01.068Z,52.66
2023-03-06T11:40:27.436Z,52.38
2023-03-06T11:42:53.798Z,52.49
2023-03-06T11:45:20.169Z,52.53
2023-03-06T11:47:46.745Z,52.73
2023-03-06T11:50:13.276Z,52.60
2023-03-06T11:52:39.738Z,52.46
2023-03-06T11:55:06.143Z,52.64
2023-03-06T11:57:32.748Z,52.89
2023-03-06T11:59:59.180Z,52.57
2023-03-06T12:02:25.574Z,52.46
2023-03-06T12:04:52.062Z,52.57
2023-03-06T12:07:18.362Z,52.41
2023-03-06T12:09:45.015Z,52.59
2023-03-06T12:12:11.423Z,52.51
2023-03-06T12:14:37.814Z,52.53
2023-03-06T12:17:04.274Z,52.95
2023-03-06T12:19:30.750Z,52.96
2023-03-06T12:21:57.605Z,53.22
2023-03-06T12:24:24.026Z,52.95
2023-03-06T12:26:50.694Z,53.37
2023-03-06T12:29:17.434Z,53.75
2023-03-06T12:31:44.218Z,53.82
2023-03-06T12:34:11.452Z,54.10
2023-03-06T12:36:38.534Z,54.23
2023-03-06T12:39:06.256Z,54.47
2023-03-06T12:41:32.822Z,54.72
2023-03-06T12:43:59.456Z,54.90
2023-03-06T12:46:26.735Z,54.94
2023-03-06T12:48:53.905Z,55.18
2023-03-06T12:51:21.211Z,55.21
2023-03-06T12:53:47.931Z,55.30
2023-03-06T12:56:14.414Z,55.52
2023-03-06T12:58:41.703Z,55.49
2023-03-06T13:01:08.140Z,55.43
2023-03-06T13:03:34.719Z,55.73
2023-03-06T13:06:02.452Z,55.68
2023-03-06T13:08:29.296Z,55.76
2023-03-06T13:10:55.807Z,55.83
2023-03-06T13:13:22.698Z,55.96
2023-03-06T13:15:49.763Z,56.01
2023-03-06T13:18:16.167Z,56.04
2023-03-06T13:20:43.102Z,56.14
2023-03-06T13:23:10.396Z,55.87
2023-03-06T13:25:39.964Z,56.11
2023-03-06T13:28:07.299Z,55.95
2023-03-06T13:30:33.950Z,56.27
2023-03-06T13:33:00.765Z,55.98
2023-03-06T13:35:28.282Z,56.05
2023-03-06T13:37:54.965Z,56.10
2023-03-06T13:40:21.825Z,56.42
2023-03-06T13:42:48.684Z,56.34
2023-03-06T13:45:15.617Z,56.31
2023-03-06T13:48:09.671Z,56.22
2023-03-06T13:50:29.177Z,56.25
2023-03-06T13:52:57.346Z,56.04
2023-03-06T13:55:24.150Z,56.14
2023-03-06T13:57:51.335Z,55.97
2023-03-06T14:00:18.086Z,56.12
2023-03-06T14:02:45.242Z,55.93
2023-03-06T14:05:11.794Z,55.75
2023-03-06T14:07:38.718Z,55.82
2023-03-06T14:10:05.421Z,55.68
2023-03-06T14:12:32.742Z,55.68
2023-03-06T14:14:59.383Z,55.55
2023-03-06T14:17:25.777Z,55.25
2023-03-06T14:19:52.776Z,55.24
2023-03-06T14:22:19.296Z,55.15
2023-03-06T14:24:45.987Z,55.17
2023-03-06T14:27:12.290Z,55.23
2023-03-06T14:29:38.679Z,54.88
2023-03-06T14:32:05.067Z,55.15
2023-03-06T14:34:32.095Z,54.99
2023-03-06T14:36:58.438Z,55.06
2023-03-06T14:39:24.784Z,54.91
2023-03-06T14:41:51.599Z,54.82
2023-03-06T14:44:18.018Z,54.68
2023-03-06T14:46:45.081Z,54.85
2023-03-06T14:49:11.548Z,54.83
2023-03-06T14:51:37.948Z,54.45
2023-03-06T14:54:04.334Z,54.58
2023-03-06T14:56:31.071Z,54.65
2023-03-06T14:58:57.482Z,54.59
2023-03-06T15:01:23.935Z,54.28
2023-03-06T15:03:50.429Z,54.47
2023-03-06T15:06:17.621Z,54.45
2023-03-06T15:08:44.686Z,54.23
2023-03-06T15:11:11.073Z,54.33
2023-03-06T15:13:37.488Z,54.27
2023-03-06T15:16:04.596Z,54.27
2023-03-06T15:18:30.985Z,54.24
2023-03-06T15:20:57.305Z,53.98
2023-03-06T15:23:23.787Z,53.93
2023-03-06T15:25:50.632Z,54.11
2023-03-06T15:28:17.243Z,54.00
2023-03-06T15:30:43.654Z,53.95
2023-03-06T15:33:10.536Z,53.84
2023-03-06T15:35:38.189Z,53.89
2023-03-06T15:38:04.809Z,53.77
2023-03-06T15:40:31.446Z,53.77
2023-03-06T15:42:58.438Z,53.90
2023-03-06T15:45:24.954Z,53.79
2023-03-06T15:47:51.717Z,53.65
2023-03-06T15:50:18.127Z,53.80
2023-03-06T15:52:44.595Z,53.50
2023-03-06T15:55:11.094Z,53.69
2023-03-06T15:57:37.585Z,53.45
2023-03-06T16:00:04.097Z,53.62
2023-03-06T16:02:30.836Z,53.44
2023-03-06T16:04:57.710Z,53.30
2023-03-06T16:07:24.390Z,53.57
2023-03-06T16:09:50.965Z,53.30
2023-03-06T16:12:17.499Z,53.25
2023-03-06T16:14:43.931Z,53.37
2023-03-06T16:17:10.255Z,53.04
2023-03-06T16:19:36.597Z,53.18
2023-03-06T16:22:03.005Z,53.27
2023-03-06T16:24:29.835Z,53.00
2023-03-06T16:26:56.196Z,53.05
2023-03-06T16:29:23.057Z,53.06
2023-03-06T16:31:49.928Z,53.12
2023-03-06T16:34:16.717Z,52.98
2023-03-06T16:36:43.096Z,52.97
2023-03-06T16:39:09.562Z,52.95
2023-03-06T16:41:35.973Z,53.07
2023-03-06T16:44:02.352Z,53.04
2023-03-06T16:46:29.260Z,53.04
2023-03-06T16:48:55.908Z,52.88
2023-03-06T16:51:22.339Z,52.88
2023-03-06T16:53:48.780Z,53.11
2023-03-06T16:56:15.417Z,52.84
2023-03-06T16:58:41.884Z,53.07
2023-03-06T17:01:08.408Z,52.85
2023-03-06T17:03:34.781Z,52.83
2023-03-06T17:06:01.393Z,52.85
2023-03-06T17:08:27.802Z,53.01
2023-03-06T17:10:54.388Z,52.83
2023-03-06T17:13:20.884Z,52.99
2023-03-06T17:15:47.539Z,52.91
2023-03-06T17:18:13.951Z,52.76
2023-03-06T17:20:40.240Z,52.75
2023-03-06T17:23:07.109Z,52.71
2023-03-06T17:25:33.706Z,52.71
2023-03-06T17:28:00.061Z,52.91
2023-03-06T17:30:26.472Z,52.59
2023-03-06T17:32:53.186Z,52.72
2023-03-06T17:35:19.869Z,52.88
2023-03-06T17:37:46.303Z,52.71
2023-03-06T17:40:12.582Z,52.77
2023-03-06T17:42:39.035Z,52.85
2023-03-06T17:45:05.590Z,52.61
2023-03-06T17:47:31.992Z,52.83
2023-03-06T17:49:58.317Z,52.81
2023-03-06T17:52:24.832Z,52.64
2023-03-06T17:54:51.554Z,52.59
2023-03-06T17:57:18.009Z,52.65
2023-03-06T17:59:44.847Z,52.55
2023-03-06T18:02:11.246Z,52.50
2023-03-06T18:04:38.294Z,52.81
2023-03-06T18:07:04.633Z,52.63
2023-03-06T18:09:30.937Z,52.66
2023-03-06T18:11:57.448Z,52.54
2023-03-06T18:14:23.837Z,52.64
2023-03-06T18:16:50.189Z,52.60
2023-03-06T18:19:17.066Z,52.62
2023-03-06T18:21:43.417Z,52.66
2023-03-06T18:24:10.104Z,52.57
2023-03-06T18:26:36.763Z,52.50
2023-03-06T18:29:03.280Z,52.67
2023-03-06T18:31:30.473Z,52.45
2023-03-06T18:33:57.838Z,52.55
2023-03-06T18:36:24.262Z,52.41
2023-03-06T18:38:51.103Z,52.47
2023-03-06T18:41:17.738Z,52.50
2023-03-06T18:43:44.740Z,52.43
2023-03-06T18:46:11.148Z,52.49
2023-03-06T18:48:37.919Z,52.61
2023-03-06T18:51:04.302Z,52.43
2023-03-06T18:53:30.759Z,52.44
2023-03-06T18:55:57.048Z,52.36
2023-03-06T18:58:23.587Z,52.42
2023-03-06T19:00:49.964Z,52.54
2023-03-06T19:03:16.483Z,52.29
2023-03-06T19:05:42.965Z,52.34
2023-03-06T19:08:09.643Z,52.50
2023-03-06T19:10:36.010Z,52.50
2023-03-06T19:13:02.790Z,52.41
2023-03-06T19:15:29.164Z,52.34
2023-03-06T19:17:55.763Z,52.28
2023-03-06T19:20:22.127Z,52.41
2023-03-06T19:22:48.788Z,52.44
2023-03-06T19:25:15.502Z,52.47
2023-03-06T19:27:42.094Z,52.54
2023-03-06T19:30:09.541Z,52.35
2023-03-06T19:32:36.065Z,52.32
2023-03-06T19:35:02.734Z,52.51
2023-03-06T19:37:29.124Z,52.53
2023-03-06T19:39:55.772Z,52.69
2023-03-06T19:42:22.347Z,52.31
2023-03-06T19:44:49.089Z,52.44
2023-03-06T19:47:15.394Z,52.45
2023-03-06T19:49:41.856Z,52.61
2023-03-06T19:52:08.745Z,52.43
2023-03-06T19:54:35.333Z,52.29
2023-03-06T19:57:02.097Z,52.22
2023-03-06T19:59:28.842Z,52.51
2023-03-06T20:01:55.265Z,52.43
2023-03-06T20:04:21.580Z,52.69
2023-03-06T20:06:48.178Z,52.34
2023-03-06T20:09:15.121Z,52.51
2023-03-06T20:11:41.535Z,52.36
2023-03-06T20:14:08.194Z,52.57
2023-03-06T20:16:34.703Z,52.33
2023-03-06T20:19:01.184Z,52.48
2023-03-06T20:21:27.691Z,52.45
2023-03-06T20:23:54.382Z,52.62
2023-03-06T20:26:20.717Z,52.50
2023-03-06T20:28:47.523Z,52.59
2023-03-06T20:31:13.878Z,52.75
2023-03-06T20:33:40.243Z,52.62
2023-03-06T20:36:07.401Z,52.52
2023-03-06T20:38:34.028Z,52.55
2023-03-06T20:41:00.726Z,52.34
2023-03-06T20:43:27.712Z,52.40
2023-03-06T20:45:54.378Z,52.51
2023-03-06T20:48:20.798Z,52.50
2023-03-06T20:50:47.110Z,52.47
2023-03-06T20:53:13.429Z,52.40
2023-03-06T20:55:39.954Z,52.39
2023-03-06T20:58:06.438Z,52.55
2023-03-06T21:00:32.874Z,52.38
2023-03-06T21:02:59.853Z,52.43
2023-03-06T21:05:26.312Z,52.63
2023-03-06T21:07:52.714Z,52.52
2023-03-06T21:10:18.987Z,52.59
2023-03-06T21:12:45.797Z,52.70
2023-03-06T21:15:12.128Z,52.56
2023-03-06T21:17:39.133Z,52.45
2023-03-06T21:20:05.512Z,52.41
2023-03-06T21:22:31.968Z,52.51
2023-03-06T21:24:58.913Z,52.39
2023-03-06T21:27:25.314Z,52.37
2023-03-06T21:29:51.801Z,52.63
2023-03-06T21:32:18.202Z,52.48
2023-03-06T21:34:44.612Z,52.58
2023-03-06T21:37:11.332Z,52.43
2023-03-06T21:39:37.913Z,52.41
2023-03-06T21:42:04.336Z,52.65
2023-03-06T21:44:30.744Z,52.46
2023-03-06T21:46:57.082Z,52.57
2023-03-06T21:49:23.687Z,52.50
2023-03-06T21:51:50.154Z,52.39
2023-03-06T21:54:16.519Z,52.33
2023-03-06T21:56:42.909Z,52.56
2023-03-06T21:59:09.253Z,52.60
2023-03-06T22:01:35.610Z,52.56
2023-03-06T22:04:02.066Z,52.47
2023-03-06T22:06:29.102Z,52.47
2023-03-06T22:08:55.484Z,52.59
2023-03-06T22:11:22.264Z,52.45
2023-03-06T22:13:48.771Z,52.54
2023-03-06T22:16:15.367Z,52.46
2023-03-06T22:18:41.907Z,52.41
2023-03-06T22:21:08.221Z,52.54
2023-03-06T22:23:35.346Z,52.61
2023-03-06T22:26:01.875Z,52.63
2023-03-06T22:28:28.855Z,52.41
2023-03-06T22:30:55.385Z,52.45
2023-03-06T22:33:21.804Z,52.40
2023-03-06T22:35:48.151Z,52.46
2023-03-06T22:38:14.493Z,52.42
2023-03-06T22:40:40.901Z,52.54
2023-03-06T22:43:07.769Z,52.50
2023-03-06T22:45:34.755Z,52.41
2023-03-06T22:48:10.432Z,52.58
2023-03-06T22:50:37.259Z,52.59
2023-03-06T22:53:03.674Z,52.46
2023-03-06T22:55:29.974Z,52.51
2023-03-06T22:57:56.706Z,52.47
2023-03-06T23:00:23.244Z,52.56
2023-03-06T23:02:50.340Z,52.58
2023-03-06T23:05:17.425Z,52.57
2023-03-06T23:07:44.108Z,52.61
2023-03-06T23:10:11.147Z,52.40
2023-03-06T23:12:37.526Z,52.61
2023-03-06T23:15:04.114Z,52.64
2023-03-06T23:17:30.550Z,52.49
2023-03-06T23:19:57.735Z,52.63
2023-03-06T23:22:24.195Z,52.52
2023-03-06T23:24:50.789Z,52.54
2023-03-06T23:27:17.108Z,52.51
2023-03-06T23:29:43.444Z,52.67
2023-03-06T23:32:09.823Z,52.45
2023-03-06T23:34:36.312Z,52.67
2023-03-06T23:37:02.669Z,52.49
2023-03-06T23:39:29.346Z,52.53
2023-03-06T23:41:55.597Z,52.55
2023-03-06T23:44:22.030Z,52.63
2023-03-06T23:46:48.501Z,52.60
2023-03-06T23:49:14.883Z,52.49
2023-03-06T23:51:41.267Z,52.53
2023-03-06T23:54:07.641Z,52.51
2023-03-06T23:56:34.031Z,52.39
2023-03-06T23:59:00.489Z,52.57
